sensor_id;sensor_type;location;lat;lon;timestamp;P1;durP1;ratioP1;P2;durP2;ratioP2
48363;SDS011;34170;54.364;18.582;2023-11-22T00:00:49;24.77;;;10.63;;
48363;SDS011;34170;54.364;18.582;2023-11-22T00:03:32;18.58;;;8.82;;
48363;SDS011;34170;54.364;18.582;2023-11-22T00:06:00;20.90;;;9.73;;
48363;SDS011;34170;54.364;18.582;2023-11-22T00:08:31;19.75;;;9.88;;
48363;SDS011;34170;54.364;18.582;2023-11-22T00:10:58;21.92;;;10.18;;
48363;SDS011;34170;54.364;18.582;2023-11-22T00:13:26;26.58;;;10.20;;
48363;SDS011;34170;54.364;18.582;2023-11-22T00:15:54;23.70;;;11.02;;
48363;SDS011;34170;54.364;18.582;2023-11-22T00:18:21;22.73;;;11.30;;
48363;SDS011;34170;54.364;18.582;2023-11-22T00:20:50;22.25;;;10.43;;
48363;SDS011;34170;54.364;18.582;2023-11-22T00:23:17;20.67;;;9.93;;
48363;SDS011;34170;54.364;18.582;2023-11-22T00:25:45;20.83;;;10.40;;
48363;SDS011;34170;54.364;18.582;2023-11-22T00:28:12;21.48;;;10.32;;
48363;SDS011;34170;54.364;18.582;2023-11-22T00:30:41;21.25;;;9.82;;
48363;SDS011;34170;54.364;18.582;2023-11-22T00:33:08;22.02;;;10.43;;
48363;SDS011;34170;54.364;18.582;2023-11-22T00:35:36;20.92;;;9.88;;
48363;SDS011;34170;54.364;18.582;2023-11-22T00:38:04;24.60;;;10.25;;
48363;SDS011;34170;54.364;18.582;2023-11-22T00:40:32;20.88;;;10.30;;
48363;SDS011;34170;54.364;18.582;2023-11-22T00:42:59;17.48;;;8.95;;
48363;SDS011;34170;54.364;18.582;2023-11-22T00:45:27;19.65;;;10.30;;
48363;SDS011;34170;54.364;18.582;2023-11-22T00:47:55;23.90;;;10.63;;
48363;SDS011;34170;54.364;18.582;2023-11-22T00:50:22;22.95;;;10.50;;
48363;SDS011;34170;54.364;18.582;2023-11-22T00:52:50;22.73;;;10.32;;
48363;SDS011;34170;54.364;18.582;2023-11-22T00:55:17;19.15;;;10.18;;
48363;SDS011;34170;54.364;18.582;2023-11-22T00:57:45;22.13;;;10.50;;
48363;SDS011;34170;54.364;18.582;2023-11-22T01:00:13;21.23;;;10.05;;
48363;SDS011;34170;54.364;18.582;2023-11-22T01:02:42;21.58;;;10.00;;
48363;SDS011;34170;54.364;18.582;2023-11-22T01:05:10;27.60;;;10.57;;
48363;SDS011;34170;54.364;18.582;2023-11-22T01:07:39;21.38;;;10.20;;
48363;SDS011;34170;54.364;18.582;2023-11-22T01:10:07;23.67;;;10.73;;
48363;SDS011;34170;54.364;18.582;2023-11-22T01:12:36;28.73;;;11.77;;
48363;SDS011;34170;54.364;18.582;2023-11-22T01:15:04;25.85;;;12.63;;
48363;SDS011;34170;54.364;18.582;2023-11-22T01:17:33;23.60;;;11.70;;
48363;SDS011;34170;54.364;18.582;2023-11-22T01:20:02;25.92;;;12.27;;
48363;SDS011;34170;54.364;18.582;2023-11-22T01:22:30;26.65;;;12.60;;
48363;SDS011;34170;54.364;18.582;2023-11-22T01:24:59;25.40;;;11.68;;
48363;SDS011;34170;54.364;18.582;2023-11-22T01:27:26;27.48;;;13.32;;
48363;SDS011;34170;54.364;18.582;2023-11-22T01:29:54;28.05;;;13.10;;
48363;SDS011;34170;54.364;18.582;2023-11-22T01:32:23;28.17;;;13.55;;
48363;SDS011;34170;54.364;18.582;2023-11-22T01:34:51;31.25;;;13.20;;
48363;SDS011;34170;54.364;18.582;2023-11-22T01:37:18;27.10;;;12.45;;
48363;SDS011;34170;54.364;18.582;2023-11-22T01:39:46;25.73;;;11.88;;
48363;SDS011;34170;54.364;18.582;2023-11-22T01:42:13;28.30;;;11.82;;
48363;SDS011;34170;54.364;18.582;2023-11-22T01:44:42;25.90;;;12.23;;
48363;SDS011;34170;54.364;18.582;2023-11-22T01:47:09;27.50;;;12.35;;
48363;SDS011;34170;54.364;18.582;2023-11-22T01:49:37;26.92;;;11.82;;
48363;SDS011;34170;54.364;18.582;2023-11-22T01:52:05;26.55;;;12.40;;
48363;SDS011;34170;54.364;18.582;2023-11-22T01:54:33;27.55;;;12.48;;
48363;SDS011;34170;54.364;18.582;2023-11-22T01:57:01;29.55;;;12.05;;
48363;SDS011;34170;54.364;18.582;2023-11-22T01:59:29;27.33;;;12.50;;
48363;SDS011;34170;54.364;18.582;2023-11-22T02:01:59;32.22;;;14.05;;
48363;SDS011;34170;54.364;18.582;2023-11-22T02:04:26;30.40;;;13.18;;
48363;SDS011;34170;54.364;18.582;2023-11-22T02:06:55;29.58;;;13.13;;
48363;SDS011;34170;54.364;18.582;2023-11-22T02:09:23;27.63;;;12.40;;
48363;SDS011;34170;54.364;18.582;2023-11-22T02:11:52;25.80;;;12.40;;
48363;SDS011;34170;54.364;18.582;2023-11-22T02:14:19;31.95;;;12.85;;
48363;SDS011;34170;54.364;18.582;2023-11-22T02:16:47;26.85;;;11.75;;
48363;SDS011;34170;54.364;18.582;2023-11-22T02:19:15;26.23;;;12.40;;
48363;SDS011;34170;54.364;18.582;2023-11-22T02:21:44;28.45;;;12.40;;
48363;SDS011;34170;54.364;18.582;2023-11-22T02:24:11;30.13;;;13.15;;
48363;SDS011;34170;54.364;18.582;2023-11-22T02:26:43;30.98;;;13.65;;
48363;SDS011;34170;54.364;18.582;2023-11-22T02:29:11;30.70;;;13.15;;
48363;SDS011;34170;54.364;18.582;2023-11-22T02:31:41;31.15;;;13.77;;
48363;SDS011;34170;54.364;18.582;2023-11-22T02:34:10;31.98;;;14.00;;
48363;SDS011;34170;54.364;18.582;2023-11-22T02:36:39;32.53;;;13.82;;
48363;SDS011;34170;54.364;18.582;2023-11-22T02:41:51;32.30;;;12.73;;
48363;SDS011;34170;54.364;18.582;2023-11-22T02:44:19;29.25;;;13.02;;
48363;SDS011;34170;54.364;18.582;2023-11-22T02:46:47;26.45;;;13.15;;
48363;SDS011;34170;54.364;18.582;2023-11-22T02:49:14;33.75;;;14.05;;
48363;SDS011;34170;54.364;18.582;2023-11-22T02:51:42;28.85;;;12.52;;
48363;SDS011;34170;54.364;18.582;2023-11-22T02:54:09;30.80;;;13.55;;
48363;SDS011;34170;54.364;18.582;2023-11-22T02:56:37;33.28;;;13.65;;
48363;SDS011;34170;54.364;18.582;2023-11-22T02:59:04;30.73;;;13.20;;
48363;SDS011;34170;54.364;18.582;2023-11-22T03:01:33;35.45;;;14.15;;
48363;SDS011;34170;54.364;18.582;2023-11-22T03:04:02;31.77;;;12.65;;
48363;SDS011;34170;54.364;18.582;2023-11-22T03:06:29;30.05;;;13.75;;
48363;SDS011;34170;54.364;18.582;2023-11-22T03:08:57;26.20;;;13.02;;
48363;SDS011;34170;54.364;18.582;2023-11-22T03:11:25;25.33;;;11.73;;
48363;SDS011;34170;54.364;18.582;2023-11-22T03:13:52;30.77;;;13.25;;
48363;SDS011;34170;54.364;18.582;2023-11-22T03:16:20;27.80;;;12.35;;
48363;SDS011;34170;54.364;18.582;2023-11-22T03:18:48;29.92;;;13.18;;
48363;SDS011;34170;54.364;18.582;2023-11-22T03:21:17;32.97;;;14.40;;
48363;SDS011;34170;54.364;18.582;2023-11-22T03:23:44;30.77;;;13.52;;
48363;SDS011;34170;54.364;18.582;2023-11-22T03:26:12;26.58;;;12.10;;
48363;SDS011;34170;54.364;18.582;2023-11-22T03:28:40;26.88;;;12.77;;
48363;SDS011;34170;54.364;18.582;2023-11-22T03:31:07;30.40;;;12.73;;
48363;SDS011;34170;54.364;18.582;2023-11-22T03:33:35;30.65;;;12.93;;
48363;SDS011;34170;54.364;18.582;2023-11-22T03:36:03;31.55;;;12.63;;
48363;SDS011;34170;54.364;18.582;2023-11-22T03:38:32;26.77;;;11.55;;
48363;SDS011;34170;54.364;18.582;2023-11-22T03:41:00;25.40;;;12.13;;
48363;SDS011;34170;54.364;18.582;2023-11-22T03:43:28;27.50;;;11.43;;
48363;SDS011;34170;54.364;18.582;2023-11-22T03:45:55;28.65;;;12.68;;
48363;SDS011;34170;54.364;18.582;2023-11-22T03:48:23;24.95;;;11.68;;
48363;SDS011;34170;54.364;18.582;2023-11-22T03:50:51;28.13;;;11.35;;
48363;SDS011;34170;54.364;18.582;2023-11-22T03:53:19;26.63;;;12.13;;
48363;SDS011;34170;54.364;18.582;2023-11-22T03:55:49;28.20;;;11.95;;
48363;SDS011;34170;54.364;18.582;2023-11-22T03:58:17;26.05;;;10.80;;
48363;SDS011;34170;54.364;18.582;2023-11-22T04:00:45;22.20;;;11.05;;
48363;SDS011;34170;54.364;18.582;2023-11-22T04:03:12;23.02;;;10.82;;
48363;SDS011;34170;54.364;18.582;2023-11-22T04:05:40;26.35;;;10.55;;
48363;SDS011;34170;54.364;18.582;2023-11-22T04:08:09;25.40;;;10.52;;
48363;SDS011;34170;54.364;18.582;2023-11-22T04:10:36;19.60;;;9.82;;
48363;SDS011;34170;54.364;18.582;2023-11-22T04:13:04;25.40;;;10.65;;
48363;SDS011;34170;54.364;18.582;2023-11-22T04:15:32;21.15;;;9.35;;
48363;SDS011;34170;54.364;18.582;2023-11-22T04:18:00;21.35;;;10.15;;
48363;SDS011;34170;54.364;18.582;2023-11-22T04:20:28;21.65;;;9.55;;
48363;SDS011;34170;54.364;18.582;2023-11-22T04:22:56;19.50;;;9.77;;
48363;SDS011;34170;54.364;18.582;2023-11-22T04:25:23;20.75;;;9.02;;
48363;SDS011;34170;54.364;18.582;2023-11-22T04:27:51;19.92;;;9.10;;
48363;SDS011;34170;54.364;18.582;2023-11-22T04:30:18;17.35;;;8.27;;
48363;SDS011;34170;54.364;18.582;2023-11-22T04:32:46;18.08;;;8.10;;
48363;SDS011;34170;54.364;18.582;2023-11-22T04:35:14;18.13;;;8.70;;
48363;SDS011;34170;54.364;18.582;2023-11-22T04:37:42;18.70;;;8.77;;
48363;SDS011;34170;54.364;18.582;2023-11-22T04:40:10;16.00;;;8.00;;
48363;SDS011;34170;54.364;18.582;2023-11-22T04:42:39;18.60;;;8.32;;
48363;SDS011;34170;54.364;18.582;2023-11-22T04:45:06;16.17;;;7.60;;
48363;SDS011;34170;54.364;18.582;2023-11-22T04:47:34;18.40;;;8.15;;
48363;SDS011;34170;54.364;18.582;2023-11-22T04:50:02;21.63;;;8.05;;
48363;SDS011;34170;54.364;18.582;2023-11-22T04:52:31;17.23;;;8.20;;
48363;SDS011;34170;54.364;18.582;2023-11-22T04:54:59;21.27;;;8.38;;
48363;SDS011;34170;54.364;18.582;2023-11-22T04:57:27;17.38;;;7.50;;
48363;SDS011;34170;54.364;18.582;2023-11-22T04:59:54;15.68;;;7.63;;
48363;SDS011;34170;54.364;18.582;2023-11-22T05:02:22;15.48;;;7.85;;
48363;SDS011;34170;54.364;18.582;2023-11-22T05:04:50;18.75;;;8.23;;
48363;SDS011;34170;54.364;18.582;2023-11-22T05:07:19;14.88;;;7.45;;
48363;SDS011;34170;54.364;18.582;2023-11-22T05:09:47;15.13;;;7.43;;
48363;SDS011;34170;54.364;18.582;2023-11-22T05:12:14;14.40;;;7.28;;
48363;SDS011;34170;54.364;18.582;2023-11-22T05:14:42;14.70;;;7.43;;
48363;SDS011;34170;54.364;18.582;2023-11-22T05:17:11;10.90;;;5.97;;
48363;SDS011;34170;54.364;18.582;2023-11-22T05:19:39;16.08;;;6.90;;
48363;SDS011;34170;54.364;18.582;2023-11-22T05:22:07;14.98;;;7.05;;
48363;SDS011;34170;54.364;18.582;2023-11-22T05:24:34;19.67;;;7.50;;
48363;SDS011;34170;54.364;18.582;2023-11-22T05:27:02;16.00;;;6.70;;
48363;SDS011;34170;54.364;18.582;2023-11-22T05:29:29;14.10;;;7.05;;
48363;SDS011;34170;54.364;18.582;2023-11-22T05:32:09;16.00;;;7.53;;
48363;SDS011;34170;54.364;18.582;2023-11-22T05:34:36;17.25;;;7.55;;
48363;SDS011;34170;54.364;18.582;2023-11-22T05:37:04;14.60;;;7.60;;
48363;SDS011;34170;54.364;18.582;2023-11-22T05:39:32;13.55;;;7.15;;
48363;SDS011;34170;54.364;18.582;2023-11-22T05:42:00;16.02;;;7.35;;
48363;SDS011;34170;54.364;18.582;2023-11-22T05:44:27;14.68;;;7.20;;
48363;SDS011;34170;54.364;18.582;2023-11-22T05:46:55;15.93;;;7.60;;
48363;SDS011;34170;54.364;18.582;2023-11-22T05:49:22;18.08;;;8.23;;
48363;SDS011;34170;54.364;18.582;2023-11-22T05:51:50;18.50;;;8.15;;
48363;SDS011;34170;54.364;18.582;2023-11-22T05:54:18;17.67;;;8.02;;
48363;SDS011;34170;54.364;18.582;2023-11-22T05:56:46;23.20;;;8.23;;
48363;SDS011;34170;54.364;18.582;2023-11-22T05:59:14;17.45;;;8.38;;
48363;SDS011;34170;54.364;18.582;2023-11-22T06:01:41;15.48;;;7.88;;
48363;SDS011;34170;54.364;18.582;2023-11-22T06:04:08;19.45;;;8.18;;
48363;SDS011;34170;54.364;18.582;2023-11-22T06:06:37;17.48;;;8.18;;
48363;SDS011;34170;54.364;18.582;2023-11-22T06:09:04;16.20;;;7.88;;
48363;SDS011;34170;54.364;18.582;2023-11-22T06:11:34;16.17;;;7.97;;
48363;SDS011;34170;54.364;18.582;2023-11-22T06:14:01;16.17;;;8.35;;
48363;SDS011;34170;54.364;18.582;2023-11-22T06:16:30;19.63;;;8.73;;
48363;SDS011;34170;54.364;18.582;2023-11-22T06:18:57;17.27;;;7.68;;
48363;SDS011;34170;54.364;18.582;2023-11-22T06:21:25;18.08;;;9.07;;
48363;SDS011;34170;54.364;18.582;2023-11-22T06:23:54;18.13;;;8.35;;
48363;SDS011;34170;54.364;18.582;2023-11-22T06:26:25;15.23;;;7.10;;
48363;SDS011;34170;54.364;18.582;2023-11-22T06:28:53;20.13;;;8.85;;
48363;SDS011;34170;54.364;18.582;2023-11-22T06:31:21;20.67;;;8.98;;
48363;SDS011;34170;54.364;18.582;2023-11-22T06:33:48;22.70;;;10.57;;
48363;SDS011;34170;54.364;18.582;2023-11-22T06:36:16;18.35;;;8.98;;
48363;SDS011;34170;54.364;18.582;2023-11-22T06:38:45;18.23;;;8.52;;
48363;SDS011;34170;54.364;18.582;2023-11-22T06:41:13;17.85;;;7.95;;
48363;SDS011;34170;54.364;18.582;2023-11-22T06:43:41;22.05;;;8.82;;
48363;SDS011;34170;54.364;18.582;2023-11-22T06:46:08;19.02;;;8.80;;
48363;SDS011;34170;54.364;18.582;2023-11-22T06:48:36;17.35;;;8.45;;
48363;SDS011;34170;54.364;18.582;2023-11-22T06:51:04;21.23;;;8.90;;
48363;SDS011;34170;54.364;18.582;2023-11-22T06:53:33;17.58;;;8.90;;
48363;SDS011;34170;54.364;18.582;2023-11-22T06:56:01;18.35;;;8.05;;
48363;SDS011;34170;54.364;18.582;2023-11-22T06:58:30;16.98;;;8.15;;
48363;SDS011;34170;54.364;18.582;2023-11-22T07:01:00;20.60;;;9.10;;
48363;SDS011;34170;54.364;18.582;2023-11-22T07:03:28;21.40;;;8.88;;
48363;SDS011;34170;54.364;18.582;2023-11-22T07:05:56;21.17;;;9.10;;
48363;SDS011;34170;54.364;18.582;2023-11-22T07:08:23;18.02;;;8.27;;
48363;SDS011;34170;54.364;18.582;2023-11-22T07:10:53;19.73;;;8.85;;
48363;SDS011;34170;54.364;18.582;2023-11-22T07:13:20;16.88;;;7.93;;
48363;SDS011;34170;54.364;18.582;2023-11-22T07:15:48;20.98;;;9.90;;
48363;SDS011;34170;54.364;18.582;2023-11-22T07:18:17;18.20;;;8.63;;
48363;SDS011;34170;54.364;18.582;2023-11-22T07:20:45;19.67;;;8.80;;
48363;SDS011;34170;54.364;18.582;2023-11-22T07:23:15;21.20;;;9.50;;
48363;SDS011;34170;54.364;18.582;2023-11-22T07:25:43;14.82;;;7.28;;
48363;SDS011;34170;54.364;18.582;2023-11-22T07:28:10;20.90;;;8.05;;
48363;SDS011;34170;54.364;18.582;2023-11-22T07:30:38;15.50;;;7.65;;
48363;SDS011;34170;54.364;18.582;2023-11-22T07:33:08;13.00;;;6.88;;
48363;SDS011;34170;54.364;18.582;2023-11-22T07:35:36;12.23;;;6.10;;
48363;SDS011;34170;54.364;18.582;2023-11-22T07:38:03;14.82;;;6.55;;
48363;SDS011;34170;54.364;18.582;2023-11-22T07:40:31;15.48;;;6.82;;
48363;SDS011;34170;54.364;18.582;2023-11-22T07:42:59;12.95;;;6.50;;
48363;SDS011;34170;54.364;18.582;2023-11-22T07:45:27;14.00;;;6.47;;
48363;SDS011;34170;54.364;18.582;2023-11-22T07:47:56;13.95;;;6.55;;
48363;SDS011;34170;54.364;18.582;2023-11-22T07:50:26;14.05;;;6.57;;
48363;SDS011;34170;54.364;18.582;2023-11-22T07:52:54;16.48;;;7.07;;
48363;SDS011;34170;54.364;18.582;2023-11-22T07:55:22;12.70;;;6.82;;
48363;SDS011;34170;54.364;18.582;2023-11-22T07:57:49;15.20;;;7.43;;
48363;SDS011;34170;54.364;18.582;2023-11-22T08:00:18;15.90;;;7.00;;
48363;SDS011;34170;54.364;18.582;2023-11-22T08:02:49;15.05;;;6.78;;
48363;SDS011;34170;54.364;18.582;2023-11-22T08:05:17;15.07;;;7.53;;
48363;SDS011;34170;54.364;18.582;2023-11-22T08:07:45;13.25;;;6.10;;
48363;SDS011;34170;54.364;18.582;2023-11-22T08:10:16;11.57;;;5.55;;
48363;SDS011;34170;54.364;18.582;2023-11-22T08:12:47;12.48;;;5.90;;
48363;SDS011;34170;54.364;18.582;2023-11-22T08:15:17;13.10;;;6.50;;
48363;SDS011;34170;54.364;18.582;2023-11-22T08:17:47;12.07;;;5.72;;
48363;SDS011;34170;54.364;18.582;2023-11-22T08:20:15;13.77;;;6.70;;
48363;SDS011;34170;54.364;18.582;2023-11-22T08:22:46;15.35;;;6.57;;
48363;SDS011;34170;54.364;18.582;2023-11-22T08:25:17;13.13;;;7.10;;
48363;SDS011;34170;54.364;18.582;2023-11-22T08:27:45;14.73;;;7.15;;
48363;SDS011;34170;54.364;18.582;2023-11-22T08:30:13;17.85;;;6.88;;
48363;SDS011;34170;54.364;18.582;2023-11-22T08:32:42;12.30;;;6.72;;
48363;SDS011;34170;54.364;18.582;2023-11-22T08:35:11;11.05;;;6.50;;
48363;SDS011;34170;54.364;18.582;2023-11-22T08:37:39;12.25;;;7.03;;
48363;SDS011;34170;54.364;18.582;2023-11-22T08:40:09;14.40;;;6.65;;
48363;SDS011;34170;54.364;18.582;2023-11-22T08:42:47;11.63;;;6.30;;
48363;SDS011;34170;54.364;18.582;2023-11-22T08:45:15;14.85;;;7.00;;
48363;SDS011;34170;54.364;18.582;2023-11-22T08:47:43;13.50;;;7.45;;
48363;SDS011;34170;54.364;18.582;2023-11-22T08:50:11;11.43;;;6.72;;
48363;SDS011;34170;54.364;18.582;2023-11-22T08:52:39;13.32;;;7.88;;
48363;SDS011;34170;54.364;18.582;2023-11-22T08:55:09;12.23;;;7.63;;
48363;SDS011;34170;54.364;18.582;2023-11-22T08:57:37;13.40;;;7.15;;
48363;SDS011;34170;54.364;18.582;2023-11-22T09:00:06;13.73;;;7.15;;
48363;SDS011;34170;54.364;18.582;2023-11-22T09:02:36;14.85;;;7.20;;
48363;SDS011;34170;54.364;18.582;2023-11-22T09:05:04;11.50;;;6.82;;
48363;SDS011;34170;54.364;18.582;2023-11-22T09:07:35;11.23;;;6.32;;
48363;SDS011;34170;54.364;18.582;2023-11-22T09:10:03;11.52;;;6.13;;
48363;SDS011;34170;54.364;18.582;2023-11-22T09:12:38;10.45;;;6.03;;
48363;SDS011;34170;54.364;18.582;2023-11-22T09:15:12;10.43;;;6.60;;
48363;SDS011;34170;54.364;18.582;2023-11-22T09:17:45;11.43;;;6.03;;
48363;SDS011;34170;54.364;18.582;2023-11-22T09:20:15;8.18;;;5.35;;
48363;SDS011;34170;54.364;18.582;2023-11-22T09:22:44;10.85;;;6.38;;
48363;SDS011;34170;54.364;18.582;2023-11-22T09:25:17;9.35;;;6.05;;
48363;SDS011;34170;54.364;18.582;2023-11-22T09:27:49;10.60;;;6.35;;
48363;SDS011;34170;54.364;18.582;2023-11-22T09:30:19;13.50;;;6.35;;
48363;SDS011;34170;54.364;18.582;2023-11-22T09:33:03;8.85;;;6.00;;
48363;SDS011;34170;54.364;18.582;2023-11-22T09:35:38;9.93;;;6.50;;
48363;SDS011;34170;54.364;18.582;2023-11-22T09:38:07;10.10;;;5.63;;
48363;SDS011;34170;54.364;18.582;2023-11-22T09:43:07;10.30;;;5.85;;
48363;SDS011;34170;54.364;18.582;2023-11-22T09:45:35;11.13;;;6.18;;
48363;SDS011;34170;54.364;18.582;2023-11-22T09:48:13;11.43;;;6.18;;
48363;SDS011;34170;54.364;18.582;2023-11-22T09:53:22;9.48;;;5.60;;
48363;SDS011;34170;54.364;18.582;2023-11-22T09:55:58;9.35;;;5.30;;
48363;SDS011;34170;54.364;18.582;2023-11-22T09:58:32;11.23;;;6.20;;
48363;SDS011;34170;54.364;18.582;2023-11-22T10:01:02;8.77;;;5.47;;
48363;SDS011;34170;54.364;18.582;2023-11-22T10:03:34;7.57;;;4.53;;
48363;SDS011;34170;54.364;18.582;2023-11-22T10:06:04;9.23;;;5.00;;
48363;SDS011;34170;54.364;18.582;2023-11-22T10:08:32;7.15;;;4.20;;
48363;SDS011;34170;54.364;18.582;2023-11-22T10:11:00;6.47;;;3.90;;
48363;SDS011;34170;54.364;18.582;2023-11-22T10:13:28;8.32;;;4.35;;
48363;SDS011;34170;54.364;18.582;2023-11-22T10:15:55;7.05;;;3.90;;
48363;SDS011;34170;54.364;18.582;2023-11-22T10:18:23;7.75;;;4.07;;
48363;SDS011;34170;54.364;18.582;2023-11-22T10:20:52;5.97;;;3.13;;
48363;SDS011;34170;54.364;18.582;2023-11-22T10:23:19;6.85;;;3.47;;
48363;SDS011;34170;54.364;18.582;2023-11-22T10:25:52;5.47;;;3.03;;
48363;SDS011;34170;54.364;18.582;2023-11-22T10:28:21;6.80;;;3.22;;
48363;SDS011;34170;54.364;18.582;2023-11-22T10:30:52;6.35;;;3.00;;
48363;SDS011;34170;54.364;18.582;2023-11-22T10:33:20;5.60;;;3.03;;
48363;SDS011;34170;54.364;18.582;2023-11-22T10:35:56;5.68;;;3.08;;
48363;SDS011;34170;54.364;18.582;2023-11-22T10:38:24;6.95;;;3.78;;
48363;SDS011;34170;54.364;18.582;2023-11-22T10:40:54;5.43;;;3.15;;
48363;SDS011;34170;54.364;18.582;2023-11-22T10:43:22;5.78;;;3.35;;
48363;SDS011;34170;54.364;18.582;2023-11-22T10:48:22;5.22;;;3.13;;
48363;SDS011;34170;54.364;18.582;2023-11-22T10:50:52;5.47;;;2.78;;
48363;SDS011;34170;54.364;18.582;2023-11-22T10:53:22;6.63;;;2.72;;
48363;SDS011;34170;54.364;18.582;2023-11-22T10:56:16;6.00;;;2.70;;
48363;SDS011;34170;54.364;18.582;2023-11-22T10:58:49;7.10;;;3.22;;
48363;SDS011;34170;54.364;18.582;2023-11-22T11:01:19;6.53;;;2.83;;
48363;SDS011;34170;54.364;18.582;2023-11-22T11:04:11;6.30;;;3.28;;
48363;SDS011;34170;54.364;18.582;2023-11-22T11:06:39;6.47;;;3.13;;
48363;SDS011;34170;54.364;18.582;2023-11-22T11:09:10;6.32;;;3.08;;
48363;SDS011;34170;54.364;18.582;2023-11-22T11:11:38;6.30;;;2.75;;
48363;SDS011;34170;54.364;18.582;2023-11-22T11:14:06;4.80;;;2.40;;
48363;SDS011;34170;54.364;18.582;2023-11-22T11:16:39;5.50;;;2.67;;
48363;SDS011;34170;54.364;18.582;2023-11-22T11:19:16;6.28;;;2.17;;
48363;SDS011;34170;54.364;18.582;2023-11-22T11:21:45;4.38;;;2.17;;
48363;SDS011;34170;54.364;18.582;2023-11-22T11:24:15;5.00;;;2.20;;
48363;SDS011;34170;54.364;18.582;2023-11-22T11:26:47;3.63;;;1.77;;
48363;SDS011;34170;54.364;18.582;2023-11-22T11:29:29;2.70;;;1.30;;
48363;SDS011;34170;54.364;18.582;2023-11-22T11:31:59;3.78;;;1.40;;
48363;SDS011;34170;54.364;18.582;2023-11-22T11:34:27;4.03;;;2.00;;
48363;SDS011;34170;54.364;18.582;2023-11-22T11:36:56;5.15;;;2.30;;
48363;SDS011;34170;54.364;18.582;2023-11-22T11:39:26;8.05;;;3.47;;
48363;SDS011;34170;54.364;18.582;2023-11-22T11:42:08;5.65;;;2.75;;
48363;SDS011;34170;54.364;18.582;2023-11-22T11:45:05;7.13;;;3.25;;
48363;SDS011;34170;54.364;18.582;2023-11-22T11:47:34;14.13;;;3.15;;
48363;SDS011;34170;54.364;18.582;2023-11-22T11:50:02;7.40;;;3.65;;
48363;SDS011;34170;54.364;18.582;2023-11-22T11:52:31;11.85;;;4.38;;
48363;SDS011;34170;54.364;18.582;2023-11-22T11:54:59;8.75;;;4.22;;
48363;SDS011;34170;54.364;18.582;2023-11-22T11:57:30;9.68;;;5.07;;
48363;SDS011;34170;54.364;18.582;2023-11-22T11:59:58;11.57;;;4.88;;
48363;SDS011;34170;54.364;18.582;2023-11-22T12:02:37;10.95;;;5.22;;
48363;SDS011;34170;54.364;18.582;2023-11-22T12:05:06;11.27;;;4.70;;
48363;SDS011;34170;54.364;18.582;2023-11-22T12:07:36;9.55;;;4.68;;
48363;SDS011;34170;54.364;18.582;2023-11-22T12:10:05;11.18;;;5.72;;
48363;SDS011;34170;54.364;18.582;2023-11-22T12:12:34;9.48;;;5.20;;
48363;SDS011;34170;54.364;18.582;2023-11-22T12:15:03;11.65;;;5.72;;
48363;SDS011;34170;54.364;18.582;2023-11-22T12:17:32;12.65;;;6.75;;
48363;SDS011;34170;54.364;18.582;2023-11-22T12:20:13;17.70;;;8.68;;
48363;SDS011;34170;54.364;18.582;2023-11-22T12:22:44;15.40;;;7.70;;
48363;SDS011;34170;54.364;18.582;2023-11-22T12:25:12;17.40;;;7.70;;
48363;SDS011;34170;54.364;18.582;2023-11-22T12:27:41;14.95;;;8.13;;
48363;SDS011;34170;54.364;18.582;2023-11-22T12:35:32;18.27;;;10.38;;
48363;SDS011;34170;54.364;18.582;2023-11-22T12:38:01;19.60;;;9.38;;
48363;SDS011;34170;54.364;18.582;2023-11-22T12:40:32;20.92;;;9.20;;
48363;SDS011;34170;54.364;18.582;2023-11-22T12:43:00;16.52;;;8.25;;
48363;SDS011;34170;54.364;18.582;2023-11-22T12:45:29;16.58;;;8.23;;
48363;SDS011;34170;54.364;18.582;2023-11-22T12:47:58;17.30;;;8.82;;
48363;SDS011;34170;54.364;18.582;2023-11-22T12:50:29;16.92;;;7.82;;
48363;SDS011;34170;54.364;18.582;2023-11-22T12:53:10;18.77;;;8.70;;
48363;SDS011;34170;54.364;18.582;2023-11-22T12:55:45;15.90;;;8.68;;
48363;SDS011;34170;54.364;18.582;2023-11-22T12:58:16;18.85;;;9.20;;
48363;SDS011;34170;54.364;18.582;2023-11-22T13:00:45;15.80;;;8.20;;
48363;SDS011;34170;54.364;18.582;2023-11-22T13:03:14;17.02;;;7.88;;
48363;SDS011;34170;54.364;18.582;2023-11-22T13:05:43;14.95;;;7.63;;
48363;SDS011;34170;54.364;18.582;2023-11-22T13:08:12;19.73;;;8.05;;
48363;SDS011;34170;54.364;18.582;2023-11-22T13:10:46;16.58;;;7.38;;
48363;SDS011;34170;54.364;18.582;2023-11-22T13:13:17;16.92;;;8.18;;
48363;SDS011;34170;54.364;18.582;2023-11-22T13:15:44;16.67;;;8.15;;
48363;SDS011;34170;54.364;18.582;2023-11-22T13:18:13;20.38;;;8.48;;
48363;SDS011;34170;54.364;18.582;2023-11-22T13:20:40;19.30;;;8.88;;
48363;SDS011;34170;54.364;18.582;2023-11-22T13:23:08;16.52;;;8.80;;
48363;SDS011;34170;54.364;18.582;2023-11-22T13:25:36;16.38;;;8.88;;
48363;SDS011;34170;54.364;18.582;2023-11-22T13:28:04;14.57;;;8.95;;
48363;SDS011;34170;54.364;18.582;2023-11-22T13:30:32;15.88;;;8.52;;
48363;SDS011;34170;54.364;18.582;2023-11-22T13:33:00;17.35;;;8.93;;
48363;SDS011;34170;54.364;18.582;2023-11-22T13:35:30;16.38;;;8.38;;
48363;SDS011;34170;54.364;18.582;2023-11-22T13:38:04;16.67;;;8.95;;
48363;SDS011;34170;54.364;18.582;2023-11-22T13:40:39;17.10;;;8.23;;
48363;SDS011;34170;54.364;18.582;2023-11-22T13:43:08;15.93;;;9.35;;
48363;SDS011;34170;54.364;18.582;2023-11-22T13:45:36;16.88;;;8.95;;
48363;SDS011;34170;54.364;18.582;2023-11-22T13:50:39;14.88;;;7.53;;
48363;SDS011;34170;54.364;18.582;2023-11-22T13:53:07;14.65;;;7.93;;
48363;SDS011;34170;54.364;18.582;2023-11-22T13:55:38;15.57;;;7.50;;
48363;SDS011;34170;54.364;18.582;2023-11-22T13:58:06;14.80;;;7.93;;
48363;SDS011;34170;54.364;18.582;2023-11-22T14:00:34;13.38;;;7.95;;
48363;SDS011;34170;54.364;18.582;2023-11-22T14:03:03;16.83;;;7.95;;
48363;SDS011;34170;54.364;18.582;2023-11-22T14:05:36;14.73;;;7.10;;
48363;SDS011;34170;54.364;18.582;2023-11-22T14:08:06;11.10;;;5.80;;
48363;SDS011;34170;54.364;18.582;2023-11-22T14:10:34;15.52;;;7.25;;
48363;SDS011;34170;54.364;18.582;2023-11-22T14:13:02;17.08;;;8.68;;
48363;SDS011;34170;54.364;18.582;2023-11-22T14:15:31;15.07;;;8.25;;
48363;SDS011;34170;54.364;18.582;2023-11-22T14:17:59;15.30;;;7.97;;
48363;SDS011;34170;54.364;18.582;2023-11-22T14:20:27;16.58;;;8.13;;
48363;SDS011;34170;54.364;18.582;2023-11-22T14:22:57;17.77;;;9.35;;
48363;SDS011;34170;54.364;18.582;2023-11-22T14:25:24;18.92;;;8.82;;
48363;SDS011;34170;54.364;18.582;2023-11-22T14:27:53;16.63;;;8.82;;
48363;SDS011;34170;54.364;18.582;2023-11-22T14:30:23;18.45;;;9.52;;
48363;SDS011;34170;54.364;18.582;2023-11-22T14:32:52;16.05;;;8.80;;
48363;SDS011;34170;54.364;18.582;2023-11-22T14:35:20;20.00;;;9.95;;
48363;SDS011;34170;54.364;18.582;2023-11-22T14:37:49;17.88;;;8.90;;
48363;SDS011;34170;54.364;18.582;2023-11-22T14:40:16;19.90;;;10.02;;
48363;SDS011;34170;54.364;18.582;2023-11-22T14:42:46;15.68;;;9.35;;
48363;SDS011;34170;54.364;18.582;2023-11-22T14:45:20;18.55;;;9.88;;
48363;SDS011;34170;54.364;18.582;2023-11-22T14:47:48;18.73;;;9.63;;
48363;SDS011;34170;54.364;18.582;2023-11-22T14:50:19;18.50;;;9.95;;